createdAt,value
2023-02-02T00:00:34.603Z,53.45
2023-02-02T00:01:33.879Z,58.26
2023-02-02T00:02:33.855Z,58.66
2023-02-02T00:03:33.897Z,61.60
2023-02-02T00:04:33.815Z,58.87
2023-02-02T00:05:33.814Z,45.33
2023-02-02T00:06:33.816Z,52.26
2023-02-02T00:07:33.772Z,61.88
2023-02-02T00:08:33.793Z,53.66
2023-02-02T00:09:34.020Z,55.69
2023-02-02T00:10:33.751Z,49.04
2023-02-02T00:11:33.816Z,53.46
2023-02-02T00:12:33.994Z,53.26
2023-02-02T00:13:33.802Z,59.70
2023-02-02T00:14:33.843Z,61.83
2023-02-02T00:15:33.703Z,51.97
2023-02-02T00:16:33.865Z,55.70
2023-02-02T00:17:33.780Z,52.41
2023-02-02T00:18:33.784Z,51.43
2023-02-02T00:19:33.826Z,61.80
2023-02-02T00:20:33.690Z,54.00
2023-02-02T00:21:34.660Z,58.90
2023-02-02T00:22:33.644Z,58.60
2023-02-02T00:23:33.802Z,50.60
2023-02-02T00:24:33.768Z,51.14
2023-02-02T00:25:34.073Z,59.84
2023-02-02T00:26:33.805Z,53.55
2023-02-02T00:27:33.903Z,50.36
2023-02-02T00:28:33.675Z,54.01
2023-02-02T00:29:33.616Z,58.27
2023-02-02T00:30:33.838Z,60.40
2023-02-02T00:31:33.583Z,55.71
2023-02-02T00:32:33.835Z,59.11
2023-02-02T00:33:33.576Z,52.14
2023-02-02T00:34:33.621Z,59.37
2023-02-02T00:35:33.649Z,58.17
2023-02-02T00:36:33.569Z,59.87
2023-02-02T00:37:34.463Z,54.89
2023-02-02T00:38:33.543Z,61.24
2023-02-02T00:39:33.609Z,58.45
2023-02-02T00:40:33.796Z,62.19
2023-02-02T00:41:33.541Z,49.93
2023-02-02T00:42:33.520Z,44.40
2023-02-02T00:43:33.428Z,49.25
2023-02-02T00:44:33.540Z,57.36
2023-02-02T00:45:33.620Z,52.37
2023-02-02T00:46:33.902Z,44.80
2023-02-02T00:47:33.693Z,49.49
2023-02-02T00:48:33.452Z,54.09
2023-02-02T00:49:33.374Z,59.16
2023-02-02T00:50:33.433Z,57.41
2023-02-02T00:51:33.396Z,60.92
2023-02-02T00:52:33.520Z,51.43
2023-02-02T00:53:33.820Z,59.16
2023-02-02T00:54:33.422Z,59.44
2023-02-02T00:55:33.587Z,46.29
2023-02-02T00:56:33.342Z,46.05
2023-02-02T00:57:33.567Z,44.28
2023-02-02T00:58:33.391Z,47.79
2023-02-02T00:59:33.312Z,55.65
2023-02-02T01:00:33.652Z,49.38
2023-02-02T01:01:33.316Z,56.12
2023-02-02T01:02:33.404Z,55.50
2023-02-02T01:03:33.937Z,56.12
2023-02-02T01:04:33.900Z,48.54
2023-02-02T01:05:33.332Z,57.35
2023-02-02T01:06:33.195Z,55.18
2023-02-02T01:07:33.346Z,46.20
2023-02-02T01:08:33.230Z,50.66
2023-02-02T01:09:33.251Z,58.58
2023-02-02T01:10:33.387Z,50.24
2023-02-02T01:11:33.110Z,59.90
2023-02-02T01:12:33.361Z,51.41
2023-02-02T01:13:33.164Z,56.17
2023-02-02T01:14:33.878Z,49.31
2023-02-02T01:15:33.144Z,56.82
2023-02-02T01:16:33.243Z,56.34
2023-02-02T01:17:33.172Z,57.16
2023-02-02T01:18:33.131Z,48.85
2023-02-02T01:19:33.335Z,52.41
2023-02-02T01:20:33.205Z,55.64
2023-02-02T01:21:33.130Z,54.01
2023-02-02T01:22:33.303Z,42.00
2023-02-02T01:23:33.070Z,59.62
2023-02-02T01:24:33.237Z,59.03
2023-02-02T01:25:33.108Z,44.16
2023-02-02T01:26:33.927Z,38.25
2023-02-02T01:27:33.025Z,44.81
2023-02-02T01:28:33.797Z,53.88
2023-02-02T01:29:32.970Z,57.74
2023-02-02T01:30:33.138Z,45.50
2023-02-02T01:31:33.039Z,48.51
2023-02-02T01:32:32.993Z,52.60
2023-02-02T01:33:33.206Z,54.38
2023-02-02T01:34:32.985Z,56.25
2023-02-02T01:35:33.236Z,57.32
2023-02-02T01:36:33.037Z,57.03
2023-02-02T01:37:33.085Z,51.15
2023-02-02T01:38:33.021Z,50.39
2023-02-02T01:39:34.296Z,54.74
2023-02-02T01:40:34.170Z,59.97
2023-02-02T01:41:32.884Z,57.26
2023-02-02T01:42:32.913Z,50.61
2023-02-02T01:43:32.873Z,54.77
2023-02-02T01:44:33.054Z,45.35
2023-02-02T01:45:33.095Z,45.77
2023-02-02T01:46:32.992Z,60.54
2023-02-02T01:47:32.882Z,54.90
2023-02-02T01:48:32.974Z,53.61
2023-02-02T01:49:32.787Z,62.09
2023-02-02T01:50:33.129Z,49.55
2023-02-02T01:51:32.874Z,58.08
2023-02-02T01:52:32.844Z,45.93
2023-02-02T01:53:32.754Z,54.20
2023-02-02T01:54:32.750Z,62.00
2023-02-02T01:55:32.908Z,53.40
2023-02-02T01:56:32.826Z,46.61
2023-02-02T01:57:32.938Z,44.91
2023-02-02T01:58:32.911Z,61.03
2023-02-02T01:59:32.774Z,56.82
2023-02-02T02:00:32.873Z,55.80
2023-02-02T02:01:33.245Z,50.20
2023-02-02T02:02:33.052Z,63.58
2023-02-02T02:03:32.879Z,62.06
2023-02-02T02:04:33.205Z,53.47
2023-02-02T02:05:33.272Z,57.31
2023-02-02T02:06:32.583Z,60.60
2023-02-02T02:07:32.643Z,60.29
2023-02-02T02:08:32.621Z,42.17
2023-02-02T02:09:32.574Z,57.12
2023-02-02T02:10:32.979Z,48.12
2023-02-02T02:11:32.702Z,56.07
2023-02-02T02:12:32.979Z,45.63
2023-02-02T02:13:32.715Z,58.50
2023-02-02T02:14:32.590Z,40.22
2023-02-02T02:15:32.663Z,52.51
2023-02-02T02:16:32.610Z,44.66
2023-02-02T02:17:33.383Z,54.40
2023-02-02T02:18:32.646Z,59.60
2023-02-02T02:19:32.572Z,60.22
2023-02-02T02:20:32.523Z,53.18
2023-02-02T02:21:32.798Z,45.48
2023-02-02T02:22:32.534Z,54.48
2023-02-02T02:23:32.513Z,58.94
2023-02-02T02:24:33.390Z,47.16
2023-02-02T02:25:32.549Z,58.07
2023-02-02T02:26:33.846Z,47.88
2023-02-02T02:27:32.458Z,57.25
2023-02-02T02:28:32.477Z,54.43
2023-02-02T02:29:32.431Z,54.22
2023-02-02T02:30:32.515Z,47.62
2023-02-02T02:31:32.561Z,53.82
2023-02-02T02:32:32.637Z,65.28
2023-02-02T02:33:32.424Z,47.81
2023-02-02T02:34:32.531Z,60.92
2023-02-02T02:35:32.387Z,58.65
2023-02-02T02:36:32.841Z,59.99
2023-02-02T02:37:32.384Z,58.29
2023-02-02T02:38:32.396Z,43.44
2023-02-02T02:39:32.340Z,50.45
2023-02-02T02:40:32.427Z,47.76
2023-02-02T02:41:32.286Z,45.71
2023-02-02T02:42:32.417Z,47.21
2023-02-02T02:43:34.704Z,46.16
2023-02-02T02:44:32.289Z,56.03
2023-02-02T02:45:32.259Z,52.26
2023-02-02T02:46:32.405Z,60.63
2023-02-02T02:47:32.272Z,50.22
2023-02-02T02:48:32.272Z,53.68
2023-02-02T02:49:32.574Z,56.52
2023-02-02T02:50:32.511Z,58.53
2023-02-02T02:51:32.201Z,63.51
2023-02-02T02:52:32.251Z,53.38
2023-02-02T02:53:32.296Z,46.45
2023-02-02T02:54:33.924Z,55.58
2023-02-02T02:55:32.242Z,40.88
2023-02-02T02:56:32.316Z,57.33
2023-02-02T02:57:32.192Z,61.13
2023-02-02T02:58:35.253Z,56.19
2023-02-02T02:59:32.197Z,61.86
2023-02-02T03:00:32.123Z,50.10
2023-02-02T03:01:32.250Z,61.49
2023-02-02T03:02:32.109Z,44.71
2023-02-02T03:03:33.696Z,60.63
2023-02-02T03:04:32.034Z,53.33
2023-02-02T03:05:32.077Z,49.57
2023-02-02T03:06:32.260Z,50.07
2023-02-02T03:07:32.100Z,55.42
2023-02-02T03:08:32.408Z,58.80
2023-02-02T03:09:32.180Z,62.28
2023-02-02T03:10:32.684Z,54.56
2023-02-02T03:11:32.951Z,59.85
2023-02-02T03:12:33.697Z,54.96
2023-02-02T03:13:32.909Z,40.95
2023-02-02T03:14:31.979Z,52.14
2023-02-02T03:15:34.657Z,56.98
2023-02-02T03:16:32.106Z,59.76
2023-02-02T03:17:32.007Z,55.61
2023-02-02T03:18:32.054Z,54.39
2023-02-02T03:19:31.995Z,61.49
2023-02-02T03:20:32.413Z,57.08
2023-02-02T03:21:31.948Z,59.14
2023-02-02T03:22:32.930Z,49.12
2023-02-02T03:23:32.050Z,53.20
2023-02-02T03:24:34.775Z,61.68
2023-02-02T03:25:33.787Z,41.61
2023-02-02T03:26:32.090Z,47.33
2023-02-02T03:27:33.938Z,52.79
2023-02-02T03:28:32.525Z,54.26
2023-02-02T03:29:33.494Z,57.05
2023-02-02T03:30:33.507Z,61.11
2023-02-02T03:31:32.663Z,51.40
2023-02-02T03:32:32.129Z,57.44
2023-02-02T03:33:33.048Z,52.56
2023-02-02T03:34:31.902Z,51.51
2023-02-02T03:35:31.919Z,55.91
2023-02-02T03:36:31.953Z,52.95
2023-02-02T03:37:31.773Z,59.57
2023-02-02T03:38:31.859Z,61.30
2023-02-02T03:39:31.737Z,53.65
2023-02-02T03:40:32.268Z,46.22
2023-02-02T03:41:31.901Z,55.42
2023-02-02T03:42:31.800Z,59.28
2023-02-02T03:43:31.959Z,62.41
2023-02-02T03:44:31.687Z,58.06
2023-02-02T03:45:32.317Z,61.56
2023-02-02T03:46:31.904Z,65.29
2023-02-02T03:47:32.710Z,54.67
2023-02-02T03:48:31.691Z,56.87
2023-02-02T03:49:31.953Z,58.57
2023-02-02T03:50:33.342Z,60.59
2023-02-02T03:51:31.725Z,55.12
2023-02-02T03:52:31.888Z,52.71
2023-02-02T03:53:31.953Z,61.35
2023-02-02T03:54:33.638Z,59.24
2023-02-02T03:55:31.955Z,64.48
2023-02-02T03:56:31.674Z,54.83
2023-02-02T03:57:32.417Z,61.14
2023-02-02T03:58:32.835Z,50.83
2023-02-02T03:59:32.763Z,59.84
2023-02-02T04:00:31.533Z,56.75
2023-02-02T04:01:31.628Z,64.01
2023-02-02T04:02:31.635Z,56.50
2023-02-02T04:03:32.275Z,51.41
2023-02-02T04:04:32.198Z,62.47
2023-02-02T04:05:32.746Z,60.91
2023-02-02T04:06:38.219Z,54.29
2023-02-02T04:07:34.368Z,60.84
2023-02-02T04:08:31.442Z,61.72
2023-02-02T04:09:31.536Z,64.23
2023-02-02T04:10:31.692Z,61.82
2023-02-02T04:12:12.051Z,65.60
2023-02-02T04:12:32.719Z,64.54
2023-02-02T04:13:31.607Z,61.37
2023-02-02T04:14:31.856Z,62.81
2023-02-02T04:15:31.596Z,58.37
2023-02-02T04:16:36.559Z,59.05
2023-02-02T04:17:31.600Z,59.93
2023-02-02T04:18:31.416Z,63.85
2023-02-02T04:19:36.589Z,62.82
2023-02-02T04:20:36.554Z,59.75
2023-02-02T04:21:31.529Z,61.84
2023-02-02T04:22:31.846Z,60.87
2023-02-02T04:23:31.357Z,64.05
2023-02-02T04:24:31.394Z,59.93
2023-02-02T04:25:31.781Z,62.46
2023-02-02T04:26:33.239Z,59.97
2023-02-02T04:27:32.709Z,61.29
2023-02-02T04:28:31.331Z,66.14
2023-02-02T04:29:34.161Z,64.42
2023-02-02T04:30:32.736Z,61.91
2023-02-02T04:31:32.880Z,66.24
2023-02-02T04:32:31.630Z,62.04
2023-02-02T04:33:34.691Z,63.20
2023-02-02T04:34:31.746Z,62.17
2023-02-02T04:35:31.356Z,60.81
2023-02-02T04:36:31.618Z,64.01
2023-02-02T04:37:32.723Z,59.79
2023-02-02T04:38:39.250Z,64.33
2023-02-02T04:39:31.582Z,59.78
2023-02-02T04:40:31.741Z,64.57
2023-02-02T04:41:31.474Z,63.70
2023-02-02T04:42:31.314Z,61.56
2023-02-02T04:43:39.736Z,61.13
2023-02-02T04:44:31.361Z,58.26
2023-02-02T04:45:31.345Z,60.46
2023-02-02T04:46:31.543Z,59.29
2023-02-02T04:47:31.109Z,60.49
2023-02-02T04:48:31.169Z,61.47
2023-02-02T04:49:31.151Z,57.89
2023-02-02T04:50:32.839Z,58.37
2023-02-02T04:51:31.081Z,58.01
2023-02-02T04:52:31.094Z,58.82
2023-02-02T04:53:31.123Z,60.15
2023-02-02T04:54:31.084Z,60.36
2023-02-02T04:55:32.220Z,61.06
2023-02-02T04:56:32.158Z,60.34
2023-02-02T04:57:31.332Z,60.32
2023-02-02T04:58:31.431Z,60.57
2023-02-02T04:59:31.069Z,58.73
2023-02-02T05:00:31.013Z,59.25
2023-02-02T05:01:31.046Z,61.01
2023-02-02T05:02:32.109Z,60.48
2023-02-02T05:03:42.388Z,57.72
2023-02-02T05:04:31.148Z,60.08
2023-02-02T05:05:31.479Z,63.75
2023-02-02T05:06:32.330Z,60.77
2023-02-02T05:07:40.267Z,58.36
2023-02-02T05:08:31.215Z,58.52
2023-02-02T05:09:31.287Z,63.74
2023-02-02T05:10:32.576Z,62.59
2023-02-02T05:11:32.531Z,60.90
2023-02-02T05:12:31.671Z,59.23
2023-02-02T05:13:31.349Z,62.89
2023-02-02T05:14:34.242Z,64.89
2023-02-02T05:15:59.195Z,67.22
2023-02-02T05:16:31.968Z,65.60
2023-02-02T05:17:31.282Z,63.67
2023-02-02T05:18:31.262Z,66.19
2023-02-02T05:19:35.195Z,64.76
2023-02-02T05:20:31.738Z,66.82
2023-02-02T05:21:30.735Z,64.92
2023-02-02T05:22:30.736Z,66.28
2023-02-02T05:23:30.798Z,68.39
2023-02-02T05:24:30.730Z,63.70
2023-02-02T05:25:30.687Z,63.89
2023-02-02T05:27:04.339Z,67.56
2023-02-02T05:27:30.779Z,67.32
2023-02-02T05:28:30.862Z,66.44
2023-02-02T05:29:30.822Z,65.18
2023-02-02T05:30:33.186Z,67.09
2023-02-02T05:31:30.677Z,69.13
2023-02-02T05:32:30.677Z,67.56
2023-02-02T05:33:30.659Z,68.07
2023-02-02T05:34:30.581Z,67.98
2023-02-02T05:35:30.612Z,67.40
2023-02-02T05:36:30.624Z,67.14
2023-02-02T05:37:30.600Z,65.83
2023-02-02T05:38:30.571Z,64.80
2023-02-02T05:39:30.560Z,67.59
2023-02-02T05:40:30.583Z,68.04
2023-02-02T05:41:30.559Z,64.77
2023-02-02T05:42:30.510Z,66.18
2023-02-02T05:43:30.565Z,67.53
2023-02-02T05:44:30.544Z,66.00
2023-02-02T05:45:30.498Z,66.70
2023-02-02T05:46:30.594Z,65.88
2023-02-02T05:47:30.446Z,67.85
2023-02-02T05:48:30.475Z,63.34
2023-02-02T05:49:30.513Z,64.01
2023-02-02T05:58:56.503Z,69.07
2023-02-02T05:59:56.324Z,66.48
2023-02-02T06:00:56.842Z,67.62
2023-02-02T06:01:57.249Z,64.08
2023-02-02T06:02:56.231Z,67.29
2023-02-02T06:03:56.220Z,65.89
2023-02-02T06:04:56.228Z,65.62
2023-02-02T06:05:56.170Z,66.05
2023-02-02T06:06:56.215Z,67.58
2023-02-02T06:07:57.074Z,68.65
2023-02-02T06:08:56.217Z,67.82
2023-02-02T06:10:30.255Z,66.00
2023-02-02T06:10:56.509Z,66.87
2023-02-02T06:12:31.392Z,68.38
2023-02-02T06:13:28.804Z,67.71
2023-02-02T06:14:28.741Z,66.75
2023-02-02T06:14:57.049Z,65.11
2023-02-02T06:33:12.252Z,64.51
2023-02-02T06:34:12.815Z,67.18
2023-02-02T06:35:12.347Z,64.85
2023-02-02T06:36:12.103Z,67.26
2023-02-02T06:37:12.066Z,67.51
2023-02-02T06:38:12.044Z,68.81
2023-02-02T06:39:13.370Z,65.77
2023-02-02T06:40:13.240Z,64.74
2023-02-02T06:55:49.944Z,66.59
2023-02-02T06:56:41.860Z,64.15
2023-02-02T06:58:16.824Z,68.05
2023-02-02T07:06:50.266Z,66.73
2023-02-02T07:08:11.507Z,64.99
2023-02-02T07:22:01.489Z,65.20
2023-02-02T07:23:01.254Z,60.98
2023-02-02T07:24:02.481Z,62.94
2023-02-02T07:25:02.575Z,65.34
2023-02-02T07:26:02.353Z,66.45
2023-02-02T07:27:02.296Z,60.74
2023-02-02T07:28:02.333Z,63.48
2023-02-02T07:29:02.310Z,66.18
2023-02-02T07:30:02.272Z,64.37
2023-02-02T07:31:02.263Z,64.38
2023-02-02T07:32:02.277Z,62.88
2023-02-02T07:33:02.241Z,63.81
2023-02-02T07:34:02.236Z,64.36
2023-02-02T07:35:02.252Z,64.12
2023-02-02T07:36:02.241Z,64.94
2023-02-02T07:37:03.205Z,64.48
2023-02-02T07:38:02.188Z,65.26
2023-02-02T07:39:34.833Z,64.05
2023-02-02T07:40:02.665Z,63.60
2023-02-02T07:41:02.394Z,66.12
2023-02-02T07:42:02.220Z,67.53
2023-02-02T07:43:02.343Z,66.98
2023-02-02T07:44:02.156Z,65.20
2023-02-02T07:45:24.652Z,65.43
2023-02-02T07:46:03.246Z,64.69
2023-02-02T07:47:02.104Z,66.65
2023-02-02T07:48:02.158Z,65.37
2023-02-02T07:49:02.082Z,63.77
2023-02-02T07:50:02.132Z,63.14
2023-02-02T07:51:02.132Z,64.07
2023-02-02T07:52:02.171Z,65.59
2023-02-02T07:53:02.047Z,65.31
2023-02-02T07:54:02.065Z,66.29
2023-02-02T07:55:17.160Z,63.78
2023-02-02T07:56:04.046Z,62.16
2023-02-02T07:57:02.032Z,61.82
2023-02-02T07:58:02.251Z,64.77
2023-02-02T07:59:02.154Z,63.60
2023-02-02T08:00:02.065Z,63.40
2023-02-02T08:01:02.101Z,62.61
2023-02-02T08:02:02.102Z,62.82
2023-02-02T08:03:02.104Z,64.91
2023-02-02T08:04:01.953Z,62.66
2023-02-02T08:05:01.992Z,64.41
2023-02-02T08:06:02.071Z,64.51
2023-02-02T08:07:01.979Z,65.04
2023-02-02T08:08:02.036Z,65.88
2023-02-02T08:09:02.002Z,65.22
2023-02-02T08:10:01.940Z,63.29
2023-02-02T08:11:02.023Z,65.41
2023-02-02T08:12:01.936Z,63.73
2023-02-02T08:13:02.031Z,63.94
2023-02-02T08:14:01.968Z,63.58
2023-02-02T08:15:01.966Z,65.52
2023-02-02T08:16:01.971Z,63.56
2023-02-02T08:17:01.990Z,62.15
2023-02-02T08:18:01.929Z,62.99
2023-02-02T08:19:01.938Z,62.28
2023-02-02T08:20:01.942Z,63.22
2023-02-02T08:21:02.084Z,65.77
2023-02-02T08:22:02.029Z,64.05
2023-02-02T08:23:02.004Z,63.61
2023-02-02T08:24:02.082Z,64.15
2023-02-02T08:25:01.862Z,63.84
2023-02-02T08:26:01.875Z,64.43
2023-02-02T08:27:01.973Z,63.99
2023-02-02T08:28:02.898Z,63.55
2023-02-02T08:29:01.805Z,64.42
2023-02-02T08:30:01.937Z,63.08
2023-02-02T08:31:01.880Z,63.75
2023-02-02T08:32:01.794Z,62.75
2023-02-02T08:33:01.802Z,62.04
2023-02-02T08:34:01.748Z,62.91
2023-02-02T08:35:02.307Z,61.26
2023-02-02T08:36:01.662Z,63.92
2023-02-02T08:37:01.843Z,64.54
2023-02-02T08:38:01.686Z,62.29
2023-02-02T08:39:03.100Z,65.30
2023-02-02T08:40:02.810Z,61.91
2023-02-02T08:41:01.780Z,61.43
2023-02-02T08:42:01.856Z,62.00
2023-02-02T08:43:01.701Z,61.70
2023-02-02T08:44:01.632Z,64.24
2023-02-02T08:46:04.399Z,63.36
2023-02-02T08:46:05.464Z,63.62
2023-02-02T08:47:01.720Z,62.07
2023-02-02T08:48:11.228Z,61.99
2023-02-02T08:49:03.572Z,62.88
2023-02-02T08:50:01.572Z,62.71
2023-02-02T08:51:01.706Z,62.76
2023-02-02T08:52:01.691Z,62.93
2023-02-02T08:53:01.592Z,62.62
2023-02-02T08:54:01.521Z,61.40
2023-02-02T08:55:01.551Z,61.50
2023-02-02T08:56:01.603Z,62.92
2023-02-02T08:57:01.439Z,61.31
2023-02-02T08:58:01.465Z,61.17
2023-02-02T08:59:01.528Z,60.83
2023-02-02T09:00:01.441Z,60.79
2023-02-02T09:01:01.466Z,59.63
2023-02-02T09:02:01.564Z,61.88
2023-02-02T09:03:01.457Z,60.54
2023-02-02T09:04:01.326Z,61.94
2023-02-02T09:05:01.416Z,62.96
2023-02-02T09:06:01.384Z,60.61
2023-02-02T09:07:01.490Z,61.54
2023-02-02T09:08:01.386Z,59.22
2023-02-02T09:09:01.340Z,60.21
2023-02-02T09:10:01.298Z,62.46
2023-02-02T09:11:01.284Z,59.97
2023-02-02T09:12:01.303Z,60.22
2023-02-02T09:13:01.287Z,59.12
2023-02-02T09:14:02.084Z,61.66
2023-02-02T09:15:01.288Z,62.69
2023-02-02T09:16:01.253Z,58.65
2023-02-02T09:17:01.358Z,58.60
2023-02-02T09:18:01.493Z,60.99
2023-02-02T09:19:01.318Z,59.75
2023-02-02T09:20:01.204Z,60.89
2023-02-02T09:21:02.080Z,60.27
2023-02-02T09:22:01.199Z,58.27
2023-02-02T09:23:01.218Z,60.34
2023-02-02T09:24:01.181Z,62.35
2023-02-02T09:25:01.182Z,59.24
2023-02-02T09:26:01.683Z,59.70
2023-02-02T09:27:01.273Z,59.93
2023-02-02T09:28:02.052Z,60.63
2023-02-02T09:29:01.104Z,60.65
2023-02-02T09:30:01.125Z,60.42
2023-02-02T09:31:01.116Z,60.05
2023-02-02T09:32:01.151Z,60.73
2023-02-02T09:33:01.521Z,60.93
2023-02-02T09:34:01.078Z,60.34
2023-02-02T09:35:01.049Z,60.57
2023-02-02T09:36:01.068Z,61.15
2023-02-02T09:37:01.004Z,61.91
2023-02-02T09:38:01.048Z,62.85
2023-02-02T09:39:01.026Z,60.13
2023-02-02T09:40:01.124Z,60.04
2023-02-02T09:41:01.045Z,61.20
2023-02-02T09:42:01.051Z,59.71
2023-02-02T09:43:00.976Z,60.08
2023-02-02T09:44:01.226Z,60.69
2023-02-02T09:45:00.981Z,60.37
2023-02-02T09:46:01.136Z,59.01
2023-02-02T09:47:01.163Z,58.66
2023-02-02T09:48:01.019Z,60.96
2023-02-02T09:49:01.095Z,59.58
2023-02-02T09:50:00.954Z,60.76
2023-02-02T09:51:00.975Z,61.23
2023-02-02T09:52:01.012Z,60.10
2023-02-02T09:53:01.107Z,59.86
2023-02-02T09:54:01.983Z,61.65
2023-02-02T09:55:00.903Z,60.47
2023-02-02T09:56:01.608Z,59.49
2023-02-02T09:57:00.969Z,61.40
2023-02-02T09:58:00.932Z,61.88
2023-02-02T09:59:13.746Z,59.00
2023-02-02T10:00:02.903Z,62.13
2023-02-02T10:01:00.911Z,62.68
2023-02-02T10:02:00.938Z,61.01
2023-02-02T10:03:00.891Z,60.54
2023-02-02T10:04:00.867Z,61.58
2023-02-02T10:05:00.800Z,60.15
2023-02-02T10:06:00.789Z,61.12
2023-02-02T10:07:00.729Z,62.37
2023-02-02T10:08:01.285Z,62.43
2023-02-02T10:09:00.704Z,61.51
2023-02-02T10:10:00.716Z,61.08
2023-02-02T10:11:00.779Z,60.65
2023-02-02T10:12:00.749Z,63.57
2023-02-02T10:13:00.754Z,61.85
2023-02-02T10:14:00.635Z,64.35
2023-02-02T10:15:00.824Z,62.00
2023-02-02T10:16:01.775Z,61.59
2023-02-02T10:17:01.741Z,61.44
2023-02-02T10:18:00.783Z,60.64
2023-02-02T10:19:00.676Z,62.02
2023-02-02T10:20:00.653Z,61.52
2023-02-02T10:21:00.695Z,61.45
2023-02-02T10:22:00.719Z,60.13
2023-02-02T10:23:00.662Z,62.83
2023-02-02T10:24:02.299Z,61.25
2023-02-02T10:25:01.605Z,60.16
2023-02-02T10:26:00.635Z,62.07
2023-02-02T10:27:00.707Z,60.90
2023-02-02T10:28:00.825Z,61.45
2023-02-02T10:29:00.853Z,60.86
2023-02-02T10:30:00.571Z,62.78
2023-02-02T10:31:00.686Z,60.40
2023-02-02T10:32:00.697Z,60.84
2023-02-02T10:33:01.656Z,60.42
2023-02-02T10:34:01.538Z,61.90
2023-02-02T10:35:13.050Z,61.03
2023-02-02T10:36:02.528Z,61.54
2023-02-02T10:37:00.544Z,60.15
2023-02-02T10:38:00.579Z,61.90
2023-02-02T10:39:00.469Z,61.07
2023-02-02T10:40:00.533Z,60.81
2023-02-02T10:41:00.511Z,60.37
2023-02-02T10:42:00.500Z,62.03
2023-02-02T10:43:00.441Z,58.92
2023-02-02T10:44:00.548Z,60.57
2023-02-02T10:45:00.443Z,62.39
2023-02-02T10:46:00.413Z,61.77
2023-02-02T10:47:00.356Z,60.93
2023-02-02T10:48:00.432Z,59.91
2023-02-02T10:49:01.726Z,61.71
2023-02-02T10:50:00.554Z,60.49
2023-02-02T10:51:00.365Z,63.83
2023-02-02T10:52:00.355Z,60.70
2023-02-02T10:53:00.389Z,61.74
2023-02-02T10:54:00.346Z,61.01
2023-02-02T10:55:02.893Z,62.11
2023-02-02T10:56:00.337Z,62.12
2023-02-02T10:57:00.356Z,64.32
2023-02-02T10:58:00.310Z,62.16
2023-02-02T10:59:00.299Z,60.52
2023-02-02T11:00:00.274Z,60.26
2023-02-02T11:01:00.485Z,60.40
2023-02-02T11:02:08.685Z,61.17
2023-02-02T11:03:02.213Z,61.03
2023-02-02T11:04:00.246Z,60.31
2023-02-02T11:05:00.181Z,62.33
2023-02-02T11:06:00.203Z,62.50
2023-02-02T11:07:01.592Z,60.24
2023-02-02T11:08:01.094Z,60.95
2023-02-02T11:09:00.120Z,61.29
2023-02-02T11:10:00.104Z,60.65
2023-02-02T11:11:00.048Z,61.08
2023-02-02T11:12:00.082Z,61.82
2023-02-02T11:13:01.927Z,63.55
2023-02-02T11:14:00.060Z,62.08
2023-02-02T11:15:00.158Z,60.60
2023-02-02T11:16:05.582Z,61.23
2023-02-02T11:17:01.996Z,60.83
2023-02-02T11:18:00.020Z,61.14
2023-02-02T11:19:00.055Z,63.59
2023-02-02T11:19:59.976Z,60.77
2023-02-02T11:20:59.952Z,60.81
2023-02-02T11:22:00.048Z,60.22
2023-02-02T11:22:59.939Z,60.48
2023-02-02T11:23:59.999Z,63.12
2023-02-02T11:24:59.939Z,60.49
2023-02-02T11:25:59.990Z,60.37
2023-02-02T11:26:59.954Z,63.17
2023-02-02T11:27:59.898Z,63.41
2023-02-02T11:29:00.980Z,62.58
2023-02-02T11:29:59.898Z,61.57
2023-02-02T11:30:59.958Z,59.74
2023-02-02T11:31:59.919Z,62.38
2023-02-02T11:32:59.893Z,62.16
2023-02-02T11:33:59.908Z,60.27
2023-02-02T11:34:59.826Z,61.91
2023-02-02T11:35:59.904Z,60.97
2023-02-02T11:36:59.825Z,61.25
2023-02-02T11:37:59.811Z,61.18
2023-02-02T11:38:59.803Z,62.35
2023-02-02T11:39:59.762Z,59.36
2023-02-02T11:40:59.994Z,60.54
2023-02-02T11:41:59.822Z,61.29
2023-02-02T11:42:59.791Z,62.31
2023-02-02T11:43:59.761Z,63.08
2023-02-02T11:44:59.750Z,62.97
2023-02-02T11:46:02.372Z,61.79
2023-02-02T11:47:00.709Z,62.71
2023-02-02T11:47:59.748Z,60.73
2023-02-02T11:48:59.690Z,62.89
2023-02-02T11:49:59.663Z,63.07
2023-02-02T11:50:59.727Z,61.29
2023-02-02T11:51:59.673Z,61.47
2023-02-02T11:52:59.669Z,61.17
2023-02-02T11:53:59.684Z,62.07
2023-02-02T11:54:59.706Z,59.70
2023-02-02T11:55:59.652Z,62.36
2023-02-02T11:56:59.659Z,62.55
2023-02-02T11:57:59.653Z,62.19
2023-02-02T11:58:59.648Z,62.66
2023-02-02T11:59:59.649Z,61.61
2023-02-02T12:00:59.563Z,61.74
2023-02-02T12:02:00.325Z,60.76
2023-02-02T12:02:59.555Z,59.97
2023-02-02T12:03:59.777Z,61.99
2023-02-02T12:04:59.556Z,61.12
2023-02-02T12:05:59.510Z,62.94
2023-02-02T12:06:59.524Z,62.21
2023-02-02T12:07:59.501Z,61.43
2023-02-02T12:08:59.759Z,61.94
2023-02-02T12:09:59.495Z,62.70
2023-02-02T12:10:59.464Z,63.41
2023-02-02T12:11:59.555Z,62.37
2023-02-02T12:12:59.441Z,62.11
2023-02-02T12:13:59.430Z,61.94
2023-02-02T12:15:00.382Z,63.15
2023-02-02T12:15:59.495Z,62.68
2023-02-02T12:16:59.392Z,61.97
2023-02-02T12:17:59.396Z,62.50
2023-02-02T12:19:00.406Z,61.71
2023-02-02T12:19:59.377Z,62.69
2023-02-02T12:20:59.364Z,62.95
2023-02-02T12:21:59.367Z,62.10
2023-02-02T12:22:59.379Z,61.97
2023-02-02T12:23:59.327Z,60.56
2023-02-02T12:24:59.395Z,62.65
2023-02-02T12:25:59.334Z,62.56
2023-02-02T12:26:59.335Z,63.38
2023-02-02T12:27:59.273Z,62.22
2023-02-02T12:28:59.290Z,62.37
2023-02-02T12:29:59.299Z,62.49
2023-02-02T12:30:59.271Z,63.04
2023-02-02T12:31:59.454Z,63.69
2023-02-02T12:32:59.250Z,62.22
2023-02-02T12:33:59.293Z,63.75
2023-02-02T12:34:59.247Z,61.25
2023-02-02T12:35:59.257Z,62.70
2023-02-02T12:36:59.192Z,62.29
2023-02-02T12:37:59.306Z,64.33
2023-02-02T12:38:59.400Z,62.22
2023-02-02T12:39:59.357Z,62.45
2023-02-02T12:40:59.179Z,63.26
2023-02-02T12:41:59.168Z,62.83
2023-02-02T12:42:59.501Z,62.23
2023-02-02T12:43:59.393Z,62.92
2023-02-02T12:44:59.564Z,63.31
2023-02-02T12:45:59.332Z,62.52
2023-02-02T12:46:59.214Z,62.33
2023-02-02T12:47:59.631Z,62.93
2023-02-02T12:48:59.193Z,62.30
2023-02-02T12:49:59.200Z,65.69
2023-02-02T12:50:59.087Z,61.71
2023-02-02T12:51:59.217Z,61.49
2023-02-02T12:52:59.852Z,62.71
2023-02-02T12:54:34.603Z,64.61
2023-02-02T12:55:00.182Z,64.30
2023-02-02T12:55:59.118Z,62.02
2023-02-02T12:56:59.080Z,63.14
2023-02-02T12:57:59.172Z,62.65
2023-02-02T12:58:59.104Z,62.76
2023-02-02T12:59:59.039Z,60.20
2023-02-02T13:00:59.146Z,60.97
2023-02-02T13:01:59.227Z,63.57
2023-02-02T13:02:58.971Z,63.78
2023-02-02T13:03:59.195Z,63.02
2023-02-02T13:04:59.055Z,63.42
2023-02-02T13:05:59.024Z,61.69
2023-02-02T13:06:59.119Z,61.11
2023-02-02T13:07:59.068Z,62.32
2023-02-02T13:08:59.294Z,61.66
2023-02-02T13:09:58.898Z,62.40
2023-02-02T13:10:58.976Z,62.09
2023-02-02T13:11:58.901Z,62.36
2023-02-02T13:12:58.854Z,64.25
2023-02-02T13:13:58.917Z,63.46
2023-02-02T13:14:58.853Z,62.86
2023-02-02T13:15:59.825Z,62.63
2023-02-02T13:16:59.074Z,61.89
2023-02-02T13:17:58.901Z,63.57
2023-02-02T13:18:58.967Z,62.28
2023-02-02T13:19:58.797Z,62.03
2023-02-02T13:20:58.883Z,62.65
2023-02-02T13:21:58.803Z,62.68
2023-02-02T13:22:59.064Z,60.33
2023-02-02T13:23:58.813Z,62.07
2023-02-02T13:25:00.145Z,61.34
2023-02-02T13:25:59.892Z,63.49
2023-02-02T13:26:59.029Z,62.51
2023-02-02T13:27:58.871Z,62.43
2023-02-02T13:28:58.840Z,62.30
2023-02-02T13:29:59.034Z,62.75
2023-02-02T13:30:58.993Z,62.28
2023-02-02T13:31:58.832Z,63.26
2023-02-02T13:32:58.834Z,63.22
2023-02-02T13:33:58.694Z,63.28
2023-02-02T13:34:58.860Z,62.82
2023-02-02T13:35:58.707Z,64.17
2023-02-02T13:36:58.765Z,64.21
2023-02-02T13:37:58.711Z,61.55
2023-02-02T13:38:58.867Z,62.56
2023-02-02T13:39:58.650Z,65.65
2023-02-02T13:40:58.744Z,64.54
2023-02-02T13:41:58.719Z,63.73
2023-02-02T13:42:58.720Z,62.63
2023-02-02T13:43:58.683Z,64.01
2023-02-02T13:44:58.743Z,63.49
2023-02-02T13:45:58.702Z,61.97
2023-02-02T13:46:58.555Z,61.15
2023-02-02T13:47:59.548Z,64.73
2023-02-02T13:48:58.817Z,63.41
2023-02-02T13:49:58.709Z,62.60
2023-02-02T13:50:58.597Z,62.93
2023-02-02T13:51:58.614Z,61.92
2023-02-02T13:52:58.802Z,64.50
2023-02-02T13:53:58.607Z,64.50